createdAt,value
2023-03-28T00:01:09.402Z,98.85
2023-03-28T00:03:40.111Z,99.12
2023-03-28T00:06:12.363Z,98.83
2023-03-28T00:08:40.957Z,98.75
2023-03-28T00:11:11.375Z,98.72
2023-03-28T00:13:39.029Z,98.54
2023-03-28T00:16:12.964Z,98.55
2023-03-28T00:18:42.841Z,98.50
2023-03-28T00:21:25.248Z,98.08
2023-03-28T00:24:03.657Z,98.16
2023-03-28T00:26:35.532Z,97.88
2023-03-28T00:29:05.989Z,97.93
2023-03-28T00:31:35.137Z,97.39
2023-03-28T00:34:02.532Z,96.92
2023-03-28T00:36:32.756Z,96.26
2023-03-28T00:39:07.600Z,95.96
2023-03-28T00:41:40.122Z,95.69
2023-03-28T00:44:46.462Z,96.03
2023-03-28T00:47:28.364Z,95.78
2023-03-28T00:50:04.227Z,95.50
2023-03-28T00:52:57.236Z,94.63
2023-03-28T00:55:31.183Z,94.24
2023-03-28T00:57:58.914Z,93.97
2023-03-28T01:00:26.631Z,93.78
2023-03-28T01:02:58.505Z,93.60
2023-03-28T01:05:32.802Z,93.40
2023-03-28T01:08:26.888Z,93.18
2023-03-28T01:10:54.297Z,93.50
2023-03-28T01:13:28.361Z,93.12
2023-03-28T01:15:55.907Z,93.71
2023-03-28T01:18:23.501Z,93.86
2023-03-28T01:21:48.903Z,93.26
2023-03-28T01:25:04.213Z,93.21
2023-03-28T01:28:05.933Z,93.04
2023-03-28T01:30:57.576Z,92.67
2023-03-28T01:34:01.776Z,91.41
2023-03-28T01:37:29.998Z,91.30
2023-03-28T01:40:48.983Z,91.49
2023-03-28T01:43:45.245Z,91.05
2023-03-28T01:46:32.789Z,91.22
2023-03-28T01:49:19.475Z,91.68
2023-03-28T01:51:58.256Z,91.89
2023-03-28T01:54:37.363Z,91.80
2023-03-28T01:57:23.379Z,91.99
2023-03-28T01:59:59.977Z,91.72
2023-03-28T02:02:37.085Z,92.07
2023-03-28T02:05:09.899Z,92.64
2023-03-28T02:07:45.501Z,92.96
2023-03-28T02:10:16.873Z,92.76
2023-03-28T02:12:56.933Z,92.48
2023-03-28T02:15:27.251Z,92.53
2023-03-28T02:18:06.986Z,92.83
2023-03-28T02:20:37.702Z,92.80
2023-03-28T02:23:32.488Z,92.74
2023-03-28T02:26:00.068Z,92.89
2023-03-28T02:28:28.026Z,91.99
2023-03-28T02:30:55.528Z,91.60
2023-03-28T02:33:40.997Z,91.29
2023-03-28T02:36:37.338Z,91.15
2023-03-28T02:39:44.449Z,91.35
2023-03-28T02:42:51.943Z,91.17
2023-03-28T02:45:39.341Z,90.99
2023-03-28T02:48:27.792Z,90.81
2023-03-28T02:50:55.201Z,90.59
2023-03-28T02:53:49.218Z,90.65
2023-03-28T02:56:37.175Z,90.62
2023-03-28T02:59:25.949Z,90.73
2023-03-28T03:01:53.386Z,90.72
2023-03-28T03:04:20.491Z,90.78
2023-03-28T03:06:48.521Z,91.39
2023-03-28T03:09:18.060Z,91.59
2023-03-28T03:11:45.432Z,92.39
2023-03-28T03:14:12.787Z,93.15
2023-03-28T03:16:40.222Z,94.41
2023-03-28T03:19:07.642Z,95.47
2023-03-28T03:21:37.108Z,96.11
2023-03-28T03:24:04.793Z,96.87
2023-03-28T03:26:32.169Z,98.23
2023-03-28T03:29:00.854Z,98.62
2023-03-28T03:31:28.010Z,99.56
2023-03-28T03:33:55.465Z,100.00
2023-03-28T03:36:22.892Z,100.00
2023-03-28T03:38:50.784Z,100.00
2023-03-28T03:41:17.779Z,100.00
2023-03-28T03:43:47.256Z,100.00
2023-03-28T03:46:14.775Z,100.00
2023-03-28T03:48:49.487Z,100.00
2023-03-28T03:51:17.999Z,100.00
2023-03-28T03:53:46.715Z,100.00
2023-03-28T03:56:14.182Z,100.00
2023-03-28T03:58:41.065Z,100.00
2023-03-28T04:01:14.075Z,100.00
2023-03-28T04:03:42.825Z,100.00
2023-03-28T04:06:11.062Z,100.00
2023-03-28T04:08:38.516Z,100.00
2023-03-28T04:11:06.089Z,100.00
2023-03-28T04:13:33.415Z,100.00
2023-03-28T04:16:00.803Z,100.00
2023-03-28T04:18:29.859Z,100.00
2023-03-28T04:20:59.778Z,100.00
2023-03-28T04:23:26.911Z,100.00
2023-03-28T04:25:57.498Z,100.00
2023-03-28T04:28:27.786Z,100.00
2023-03-28T04:30:59.617Z,100.00
2023-03-28T04:33:29.238Z,100.00
2023-03-28T04:36:02.403Z,100.00
2023-03-28T04:38:32.801Z,100.00
2023-03-28T04:41:00.950Z,100.00
2023-03-28T04:43:29.213Z,100.00
2023-03-28T04:45:57.618Z,100.00
2023-03-28T04:48:26.932Z,100.00
2023-03-28T04:50:55.305Z,100.00
2023-03-28T04:53:23.059Z,100.00
2023-03-28T04:55:50.546Z,100.00
2023-03-28T04:58:19.720Z,100.00
2023-03-28T05:00:47.133Z,100.00
2023-03-28T05:03:21.057Z,100.00
2023-03-28T05:05:50.075Z,100.00
2023-03-28T05:08:22.609Z,100.00
2023-03-28T05:10:51.074Z,100.00
2023-03-28T05:13:18.428Z,100.00
2023-03-28T05:15:47.661Z,100.00
2023-03-28T05:18:16.040Z,100.00
2023-03-28T05:20:43.398Z,100.00
2023-03-28T05:23:10.776Z,100.00
2023-03-28T05:25:38.136Z,100.00
2023-03-28T05:28:06.098Z,100.00
2023-03-28T05:30:33.101Z,100.00
2023-03-28T05:33:00.934Z,100.00
2023-03-28T05:35:28.475Z,100.00
2023-03-28T05:37:55.420Z,100.00
2023-03-28T05:40:22.801Z,100.00
2023-03-28T05:42:49.913Z,100.00
2023-03-28T05:45:17.178Z,100.00
2023-03-28T05:47:44.228Z,100.00
2023-03-28T05:50:11.804Z,100.00
2023-03-28T05:52:39.175Z,100.00
2023-03-28T05:55:07.493Z,100.00
2023-03-28T05:57:34.664Z,100.00
2023-03-28T06:00:03.700Z,100.00
2023-03-28T06:02:33.505Z,100.00
2023-03-28T06:05:00.940Z,100.00
2023-03-28T06:07:41.479Z,100.00
2023-03-28T06:10:12.365Z,100.00
2023-03-28T06:12:39.614Z,100.00
2023-03-28T06:15:08.447Z,100.00
2023-03-28T06:17:35.954Z,100.00
2023-03-28T06:20:06.622Z,100.00
2023-03-28T06:22:34.227Z,100.00
2023-03-28T06:25:01.629Z,100.00
2023-03-28T06:27:28.666Z,100.00
2023-03-28T06:29:56.141Z,100.00
2023-03-28T06:32:23.634Z,100.00
2023-03-28T06:34:51.128Z,100.00
2023-03-28T06:37:18.486Z,100.00
2023-03-28T06:39:46.060Z,100.00
2023-03-28T06:42:13.474Z,100.00
2023-03-28T06:44:40.839Z,100.00
2023-03-28T06:47:07.879Z,100.00
2023-03-28T06:49:35.366Z,100.00
2023-03-28T06:52:03.020Z,100.00
2023-03-28T06:54:30.557Z,100.00
2023-03-28T06:56:57.955Z,100.00
2023-03-28T06:59:25.475Z,100.00
2023-03-28T07:01:52.507Z,100.00
2023-03-28T07:04:19.479Z,100.00
2023-03-28T07:06:46.903Z,100.00
2023-03-28T07:09:13.891Z,100.00
2023-03-28T07:11:41.113Z,100.00
2023-03-28T07:14:08.503Z,100.00
2023-03-28T07:16:36.076Z,100.00
2023-03-28T07:19:03.597Z,100.00
2023-03-28T07:21:31.146Z,100.00
2023-03-28T07:23:58.551Z,100.00
2023-03-28T07:26:27.589Z,100.00
2023-03-28T07:28:55.561Z,100.00
2023-03-28T07:31:24.507Z,100.00
2023-03-28T07:33:51.913Z,100.00
2023-03-28T07:36:21.661Z,99.34
2023-03-28T07:38:49.731Z,97.44
2023-03-28T07:41:17.536Z,96.65
2023-03-28T07:43:45.190Z,94.59
2023-03-28T07:46:15.018Z,92.67
2023-03-28T07:48:42.804Z,91.33
2023-03-28T07:51:11.042Z,89.70
2023-03-28T07:53:39.666Z,88.82
2023-03-28T07:56:12.075Z,87.35
2023-03-28T07:58:41.017Z,86.57
2023-03-28T08:01:11.055Z,84.71
2023-03-28T08:03:38.807Z,83.21
2023-03-28T08:06:20.124Z,81.49
2023-03-28T08:08:56.025Z,80.26
2023-03-28T08:11:23.362Z,80.51
2023-03-28T08:13:50.679Z,79.49
2023-03-28T08:16:18.135Z,78.89
2023-03-28T08:18:45.583Z,79.03
2023-03-28T08:21:12.996Z,79.44
2023-03-28T08:23:40.457Z,80.47
2023-03-28T08:26:08.101Z,79.97
2023-03-28T08:28:37.452Z,79.61
2023-03-28T08:31:14.686Z,78.95
2023-03-28T08:33:48.561Z,78.72
2023-03-28T08:36:16.040Z,77.97
2023-03-28T08:38:44.461Z,77.66
2023-03-28T08:41:29.519Z,77.56
2023-03-28T08:44:35.274Z,77.82
2023-03-28T08:47:11.161Z,76.25
2023-03-28T08:49:52.753Z,75.25
2023-03-28T08:52:21.063Z,74.93
2023-03-28T08:55:35.118Z,75.08
2023-03-28T08:58:02.745Z,73.95
2023-03-28T09:00:37.126Z,73.61
2023-03-28T09:03:13.178Z,73.78
2023-03-28T09:05:52.543Z,73.55
2023-03-28T09:08:38.412Z,72.83
2023-03-28T09:11:46.629Z,73.44
2023-03-28T09:14:42.954Z,73.79
2023-03-28T09:17:24.218Z,73.01
2023-03-28T09:20:24.968Z,72.41
2023-03-28T09:23:30.886Z,70.79
2023-03-28T09:26:01.819Z,71.04
2023-03-28T09:28:34.956Z,70.55
2023-03-28T09:31:03.030Z,70.18
2023-03-28T09:33:38.101Z,69.87
2023-03-28T09:36:13.686Z,69.99
2023-03-28T09:38:49.899Z,70.88
2023-03-28T09:41:34.541Z,70.77
2023-03-28T09:44:04.598Z,71.12
2023-03-28T09:46:43.508Z,70.72
2023-03-28T09:49:26.005Z,71.35
2023-03-28T09:51:57.092Z,71.44
2023-03-28T09:54:31.097Z,71.63
2023-03-28T09:57:04.577Z,71.08
2023-03-28T09:59:34.826Z,70.47
2023-03-28T10:02:04.155Z,69.24
2023-03-28T10:04:37.746Z,69.58
2023-03-28T10:07:11.256Z,70.68
2023-03-28T10:09:54.462Z,70.21
2023-03-28T10:12:49.134Z,68.90
2023-03-28T10:15:41.414Z,67.61
2023-03-28T10:18:13.212Z,67.28
2023-03-28T10:20:41.535Z,65.10
2023-03-28T10:23:10.740Z,67.33
2023-03-28T10:25:44.578Z,67.29
2023-03-28T10:28:23.292Z,64.99
2023-03-28T10:30:57.734Z,63.21
2023-03-28T10:33:32.006Z,64.29
2023-03-28T10:36:09.765Z,64.79
2023-03-28T10:38:50.633Z,63.31
2023-03-28T10:41:28.275Z,64.84
2023-03-28T10:43:57.102Z,62.60
2023-03-28T10:46:36.164Z,64.77
2023-03-28T10:49:07.224Z,65.38
2023-03-28T10:51:38.201Z,62.87
2023-03-28T10:54:28.357Z,64.83
2023-03-28T10:57:03.369Z,63.08
2023-03-28T11:00:14.387Z,63.19
2023-03-28T11:03:09.678Z,62.90
2023-03-28T11:06:19.031Z,62.58
2023-03-28T11:08:52.247Z,61.10
2023-03-28T11:12:27.838Z,60.74
2023-03-28T11:15:27.798Z,62.29
2023-03-28T11:18:30.013Z,61.14
2023-03-28T11:21:21.167Z,61.14
2023-03-28T11:24:10.362Z,60.25
2023-03-28T11:27:05.006Z,62.43
2023-03-28T11:29:55.750Z,62.09
2023-03-28T11:32:43.036Z,60.49
2023-03-28T11:35:32.744Z,61.64
2023-03-28T11:38:13.393Z,60.40
2023-03-28T11:41:16.850Z,61.88
2023-03-28T11:44:16.381Z,61.62
2023-03-28T11:47:09.899Z,59.36
2023-03-28T11:49:43.225Z,60.66
2023-03-28T11:52:20.388Z,59.96
2023-03-28T11:55:11.958Z,60.87
2023-03-28T11:58:01.761Z,59.87
2023-03-28T12:00:40.894Z,60.40
2023-03-28T12:03:12.882Z,60.52
2023-03-28T12:05:42.180Z,61.05
2023-03-28T12:08:29.124Z,59.58
2023-03-28T12:11:06.311Z,60.49
2023-03-28T12:13:55.365Z,58.73
2023-03-28T12:16:38.189Z,59.32
2023-03-28T12:19:14.260Z,58.22
2023-03-28T12:22:00.128Z,58.17
2023-03-28T12:24:58.385Z,58.35
2023-03-28T12:28:21.216Z,57.41
2023-03-28T12:31:18.569Z,57.13
2023-03-28T12:34:06.686Z,56.67
2023-03-28T12:37:18.038Z,56.76
2023-03-28T12:40:13.596Z,56.79
2023-03-28T12:42:43.700Z,56.23
2023-03-28T12:45:24.157Z,56.62
2023-03-28T12:47:54.723Z,55.40
2023-03-28T12:50:52.200Z,57.92
2023-03-28T12:53:21.920Z,57.53
2023-03-28T12:55:54.709Z,56.09
2023-03-28T12:58:37.607Z,55.25
2023-03-28T13:01:07.808Z,56.03
2023-03-28T13:04:06.216Z,55.10
2023-03-28T13:07:08.268Z,53.96
2023-03-28T13:09:45.901Z,54.11
2023-03-28T13:12:34.342Z,54.38
2023-03-28T13:15:27.257Z,54.62
2023-03-28T13:18:21.968Z,54.58
2023-03-28T13:20:52.127Z,55.54
2023-03-28T13:23:29.720Z,54.94
2023-03-28T13:26:00.218Z,53.97
2023-03-28T13:28:37.371Z,54.91
2023-03-28T13:31:26.520Z,54.57
2023-03-28T13:34:01.920Z,53.81
2023-03-28T13:36:36.491Z,53.38
2023-03-28T13:39:26.200Z,53.30
2023-03-28T13:41:55.386Z,52.68
2023-03-28T13:44:36.811Z,51.88
2023-03-28T13:47:04.876Z,51.52
2023-03-28T13:49:51.349Z,53.22
2023-03-28T13:52:23.912Z,50.80
2023-03-28T13:54:54.490Z,53.07
2023-03-28T13:57:27.108Z,52.59
2023-03-28T14:00:00.795Z,51.73
2023-03-28T14:02:37.123Z,52.12
2023-03-28T14:05:27.397Z,51.46
2023-03-28T14:08:01.283Z,53.16
2023-03-28T14:10:37.301Z,52.85
2023-03-28T14:13:14.571Z,51.40
2023-03-28T14:15:43.750Z,51.79
2023-03-28T14:18:21.905Z,52.56
2023-03-28T14:20:49.380Z,51.98
2023-03-28T14:24:02.065Z,51.77
2023-03-28T14:26:32.440Z,51.04
2023-03-28T14:29:05.060Z,52.36
2023-03-28T14:31:40.033Z,51.84
2023-03-28T14:34:38.653Z,50.55
2023-03-28T14:37:18.569Z,51.78
2023-03-28T14:39:47.324Z,51.57
2023-03-28T14:42:18.190Z,50.76
2023-03-28T14:44:51.282Z,49.97
2023-03-28T14:47:32.303Z,49.35
2023-03-28T14:50:01.500Z,49.16
2023-03-28T14:52:34.435Z,51.04
2023-03-28T14:55:02.840Z,50.36
2023-03-28T14:57:30.662Z,50.64
2023-03-28T14:59:58.810Z,49.82
2023-03-28T15:02:33.958Z,50.76
2023-03-28T15:05:09.721Z,49.77
2023-03-28T15:07:37.532Z,50.60
2023-03-28T15:10:18.013Z,49.84
2023-03-28T15:13:00.905Z,50.43
2023-03-28T15:15:34.361Z,49.50
2023-03-28T15:18:09.088Z,49.72
2023-03-28T15:20:37.902Z,49.16
2023-03-28T15:23:14.653Z,48.03
2023-03-28T15:25:44.316Z,49.79
2023-03-28T15:28:16.762Z,49.98
2023-03-28T15:30:46.605Z,50.75
2023-03-28T15:33:23.052Z,51.23
2023-03-28T15:35:50.643Z,51.58
2023-03-28T15:38:28.008Z,52.40
2023-03-28T15:41:32.490Z,51.49
2023-03-28T15:44:22.570Z,52.24
2023-03-28T15:46:51.141Z,51.87
2023-03-28T15:49:18.528Z,52.23
2023-03-28T15:51:52.619Z,53.44
2023-03-28T15:54:30.834Z,52.23
2023-03-28T15:57:02.341Z,51.24
2023-03-28T15:59:38.560Z,52.72
2023-03-28T16:02:23.138Z,52.40
2023-03-28T16:05:15.105Z,54.23
2023-03-28T16:07:47.415Z,53.37
2023-03-28T16:10:25.695Z,53.04
2023-03-28T16:12:53.253Z,53.12
2023-03-28T16:15:22.023Z,53.56
2023-03-28T16:17:49.747Z,52.82
2023-03-28T16:20:23.234Z,53.21
2023-03-28T16:22:50.802Z,53.00
2023-03-28T16:25:18.165Z,53.15
2023-03-28T16:27:45.521Z,53.89
2023-03-28T16:30:20.609Z,54.20
2023-03-28T16:32:48.146Z,53.87
2023-03-28T16:35:15.650Z,55.23
2023-03-28T16:37:43.002Z,54.24
2023-03-28T16:40:10.762Z,55.15
2023-03-28T16:42:38.115Z,55.06
2023-03-28T16:45:06.401Z,55.80
2023-03-28T16:47:33.897Z,55.82
2023-03-28T16:50:01.692Z,56.17
2023-03-28T16:52:30.044Z,55.99
2023-03-28T16:54:57.689Z,55.51
2023-03-28T16:57:25.108Z,55.64
2023-03-28T16:59:52.869Z,56.18
2023-03-28T17:02:21.067Z,56.51
2023-03-28T17:05:05.790Z,56.18
2023-03-28T17:07:50.409Z,56.51
2023-03-28T17:10:19.698Z,57.66
2023-03-28T17:13:08.480Z,57.12
2023-03-28T17:15:55.603Z,58.61
2023-03-28T17:18:23.704Z,59.01
2023-03-28T17:21:01.350Z,59.40
2023-03-28T17:23:29.391Z,59.04
2023-03-28T17:25:57.271Z,58.58
2023-03-28T17:28:26.251Z,59.43
2023-03-28T17:30:54.028Z,59.97
2023-03-28T17:33:22.651Z,60.03
2023-03-28T17:35:50.204Z,59.44
2023-03-28T17:38:17.957Z,59.10
2023-03-28T17:40:50.503Z,59.94
2023-03-28T17:43:18.393Z,60.32
2023-03-28T17:45:47.591Z,60.93
2023-03-28T17:48:14.975Z,61.67
2023-03-28T17:50:43.458Z,61.60
2023-03-28T17:53:11.269Z,62.79
2023-03-28T17:55:38.916Z,62.87
2023-03-28T17:58:06.450Z,62.89
2023-03-28T18:00:35.183Z,63.35
2023-03-28T18:03:03.192Z,62.22
2023-03-28T18:05:31.268Z,61.71
2023-03-28T18:07:59.145Z,61.93
2023-03-28T18:10:27.123Z,61.90
2023-03-28T18:12:54.729Z,61.47
2023-03-28T18:15:22.173Z,61.05
2023-03-28T18:17:50.324Z,61.71
2023-03-28T18:20:17.997Z,62.72
2023-03-28T18:22:45.420Z,63.52
2023-03-28T18:25:12.815Z,62.28
2023-03-28T18:27:40.841Z,64.61
2023-03-28T18:30:09.281Z,64.57
2023-03-28T18:32:36.883Z,62.90
2023-03-28T18:35:07.139Z,65.07
2023-03-28T18:37:34.962Z,66.19
2023-03-28T18:40:02.462Z,65.78
2023-03-28T18:42:30.747Z,66.95
2023-03-28T18:44:58.216Z,67.48
2023-03-28T18:47:25.640Z,65.25
2023-03-28T18:49:53.037Z,65.25
2023-03-28T18:52:20.434Z,67.64
2023-03-28T18:54:48.820Z,68.01
2023-03-28T18:57:17.030Z,68.42
2023-03-28T18:59:44.508Z,64.97
2023-03-28T19:02:16.329Z,67.77
2023-03-28T19:04:43.762Z,69.36
2023-03-28T19:07:18.460Z,68.48
2023-03-28T19:09:45.833Z,66.26
2023-03-28T19:12:13.525Z,65.99
2023-03-28T19:14:41.475Z,66.16
2023-03-28T19:17:09.878Z,66.72
2023-03-28T19:19:37.761Z,66.92
2023-03-28T19:22:06.571Z,67.58
2023-03-28T19:24:34.182Z,68.87
2023-03-28T19:27:04.649Z,69.89
2023-03-28T19:29:34.254Z,70.56
2023-03-28T19:32:02.331Z,70.89
2023-03-28T19:34:30.358Z,68.86
2023-03-28T19:36:59.481Z,67.45
2023-03-28T19:39:28.995Z,66.21
2023-03-28T19:41:57.217Z,65.75
2023-03-28T19:44:25.005Z,65.49
2023-03-28T19:46:52.581Z,65.39
2023-03-28T19:49:20.009Z,66.48
2023-03-28T19:51:49.874Z,68.22
2023-03-28T19:54:17.703Z,66.95
2023-03-28T19:56:46.113Z,68.26
2023-03-28T19:59:14.328Z,68.42
2023-03-28T20:01:41.850Z,68.90
2023-03-28T20:04:12.126Z,70.41
2023-03-28T20:06:39.757Z,72.67
2023-03-28T20:09:07.134Z,74.75
2023-03-28T20:11:34.633Z,75.58
2023-03-28T20:14:01.987Z,76.41
2023-03-28T20:16:30.168Z,74.65
2023-03-28T20:18:58.477Z,76.09
2023-03-28T20:21:28.420Z,77.72
2023-03-28T20:23:56.654Z,77.76
2023-03-28T20:26:27.083Z,79.20
2023-03-28T20:28:59.270Z,80.24
2023-03-28T20:31:28.073Z,79.24
2023-03-28T20:33:56.567Z,79.56
2023-03-28T20:36:24.448Z,79.26
2023-03-28T20:38:51.841Z,79.47
2023-03-28T20:41:19.619Z,77.95
2023-03-28T20:43:47.392Z,76.71
2023-03-28T20:46:19.101Z,78.49
2023-03-28T20:48:51.981Z,79.03
2023-03-28T20:51:22.592Z,80.15
2023-03-28T20:53:54.524Z,82.23
2023-03-28T20:56:23.488Z,83.39
2023-03-28T20:58:52.980Z,83.08
2023-03-28T21:01:26.485Z,82.32
2023-03-28T21:03:57.924Z,81.66
2023-03-28T21:06:30.484Z,81.43
2023-03-28T21:09:00.579Z,81.71
2023-03-28T21:11:34.809Z,82.11
2023-03-28T21:14:02.658Z,82.61
2023-03-28T21:16:31.764Z,83.50
2023-03-28T21:19:02.819Z,84.04
2023-03-28T21:21:30.490Z,84.52
2023-03-28T21:23:58.032Z,84.40
2023-03-28T21:26:26.148Z,84.09
2023-03-28T21:28:53.906Z,85.95
2023-03-28T21:31:27.264Z,86.79
2023-03-28T21:33:59.612Z,85.01
2023-03-28T21:36:28.029Z,82.17
2023-03-28T21:38:56.104Z,82.53
2023-03-28T21:41:23.917Z,81.87
2023-03-28T21:43:53.759Z,81.21
2023-03-28T21:46:22.052Z,80.75
2023-03-28T21:48:49.983Z,81.79
2023-03-28T21:51:18.055Z,82.53
2023-03-28T21:53:45.988Z,84.54
2023-03-28T21:56:14.538Z,85.35
2023-03-28T21:58:42.214Z,86.97
2023-03-28T22:01:13.778Z,88.31
2023-03-28T22:03:41.413Z,88.16
2023-03-28T22:06:09.154Z,87.92
2023-03-28T22:08:36.717Z,88.52
2023-03-28T22:11:15.253Z,89.02
2023-03-28T22:13:44.873Z,89.75
2023-03-28T22:16:12.958Z,89.96
2023-03-28T22:18:41.685Z,90.43
2023-03-28T22:21:14.140Z,92.62
2023-03-28T22:23:42.873Z,91.69
2023-03-28T22:26:12.508Z,92.01
2023-03-28T22:28:39.887Z,89.49
2023-03-28T22:31:07.527Z,86.56
2023-03-28T22:33:34.851Z,84.53
2023-03-28T22:36:02.256Z,83.28
2023-03-28T22:38:29.659Z,83.36
2023-03-28T22:40:57.005Z,83.63
2023-03-28T22:43:25.282Z,84.38
2023-03-28T22:45:52.632Z,85.17
2023-03-28T22:48:20.319Z,84.66
2023-03-28T22:50:47.776Z,85.11
2023-03-28T22:53:15.545Z,84.41
2023-03-28T22:55:44.460Z,84.33
2023-03-28T22:58:12.181Z,85.35
2023-03-28T23:00:39.584Z,86.11
2023-03-28T23:03:08.226Z,86.50
2023-03-28T23:05:36.504Z,86.54
2023-03-28T23:08:04.834Z,86.83
2023-03-28T23:10:32.995Z,87.45
2023-03-28T23:13:00.579Z,88.24
2023-03-28T23:15:28.334Z,88.27
2023-03-28T23:17:56.545Z,88.56
2023-03-28T23:20:24.663Z,88.98
2023-03-28T23:22:52.049Z,89.28
2023-03-28T23:25:19.691Z,89.19
2023-03-28T23:27:47.258Z,89.68
2023-03-28T23:30:16.252Z,89.30
2023-03-28T23:32:43.915Z,89.93
2023-03-28T23:35:11.961Z,89.62
2023-03-28T23:37:39.604Z,90.11
2023-03-28T23:40:14.760Z,90.87
2023-03-28T23:42:44.706Z,90.92
2023-03-28T23:45:14.963Z,90.52
2023-03-28T23:47:44.307Z,91.09
2023-03-28T23:50:12.071Z,92.31
2023-03-28T23:52:39.946Z,92.91
2023-03-28T23:55:09.038Z,93.00
2023-03-28T23:57:36.752Z,92.96
